createdAt,value
2018-05-13T00:01:03.719Z,97999
2018-05-13T00:03:31.791Z,97994
2018-05-13T00:06:00.661Z,97997
2018-05-13T00:08:28.300Z,97995
2018-05-13T00:10:55.761Z,97993
2018-05-13T00:13:23.310Z,98000
2018-05-13T00:15:53.183Z,97992
2018-05-13T00:18:20.961Z,98000
2018-05-13T00:20:48.403Z,98000
2018-05-13T00:23:15.800Z,97999
2018-05-13T00:25:43.223Z,97988
2018-05-13T00:28:10.531Z,97991
2018-05-13T00:30:37.951Z,97985
2018-05-13T00:33:05.381Z,97994
2018-05-13T00:35:34.673Z,97987
2018-05-13T00:38:02.270Z,97989
2018-05-13T00:40:29.701Z,97980
2018-05-13T00:42:57.179Z,97983
2018-05-13T00:45:25.761Z,97985
2018-05-13T00:47:55.360Z,97976
2018-05-13T00:50:23.610Z,97977
2018-05-13T00:52:51.230Z,97974
2018-05-13T00:55:19.401Z,97982
2018-05-13T00:57:46.951Z,97976
2018-05-13T01:00:14.511Z,97976
2018-05-13T01:02:42.472Z,97973
2018-05-13T01:05:10.291Z,97976
2018-05-13T01:07:38.359Z,97974
2018-05-13T01:10:05.840Z,97977
2018-05-13T01:12:34.069Z,97973
2018-05-13T01:15:03.291Z,97972
2018-05-13T01:17:30.701Z,97971
2018-05-13T01:19:58.000Z,97976
2018-05-13T01:22:26.490Z,97976
2018-05-13T01:24:54.310Z,97977
2018-05-13T01:27:24.440Z,97968
2018-05-13T01:29:51.891Z,97963
2018-05-13T01:32:19.662Z,97971
2018-05-13T01:34:47.890Z,97961
2018-05-13T01:37:15.220Z,97969
2018-05-13T01:39:43.321Z,97969
2018-05-13T01:42:13.300Z,97971
2018-05-13T01:44:41.860Z,97970
2018-05-13T01:47:10.100Z,97964
2018-05-13T01:49:38.050Z,97960
2018-05-13T01:52:05.530Z,97958
2018-05-13T01:54:33.515Z,97955
2018-05-13T01:57:04.582Z,97961
2018-05-13T01:59:31.984Z,97957
2018-05-13T02:02:01.392Z,97962
2018-05-13T02:04:28.840Z,97963
2018-05-13T02:07:00.371Z,97958
2018-05-13T02:09:27.841Z,97950
2018-05-13T02:11:57.615Z,97952
2018-05-13T02:14:25.590Z,97954
2018-05-13T02:16:56.540Z,97944
2018-05-13T02:19:23.861Z,97948
2018-05-13T02:21:52.362Z,97949
2018-05-13T02:24:20.460Z,97948
2018-05-13T02:26:48.101Z,97949
2018-05-13T02:29:16.261Z,97953
2018-05-13T02:31:43.660Z,97954
2018-05-13T02:34:11.201Z,97954
2018-05-13T02:36:38.772Z,97959
2018-05-13T02:39:07.911Z,97952
2018-05-13T02:41:35.505Z,97945
2018-05-13T02:44:02.821Z,97949
2018-05-13T02:46:30.178Z,97947
2018-05-13T02:48:57.702Z,97945
2018-05-13T02:51:25.660Z,97944
2018-05-13T02:53:53.046Z,97949
2018-05-13T02:56:21.072Z,97939
2018-05-13T02:58:48.511Z,97942
2018-05-13T03:01:16.332Z,97939
2018-05-13T03:03:43.867Z,97938
2018-05-13T03:06:11.710Z,97934
2018-05-13T03:08:39.743Z,97935
2018-05-13T03:11:07.090Z,97935
2018-05-13T03:13:34.600Z,97930
2018-05-13T03:16:02.245Z,97940
2018-05-13T03:18:29.881Z,97939
2018-05-13T03:20:57.280Z,97943
2018-05-13T03:23:24.841Z,97951
2018-05-13T03:25:52.560Z,97945
2018-05-13T03:28:24.864Z,97941
2018-05-13T03:30:52.383Z,97944
2018-05-13T03:33:20.822Z,97932
2018-05-13T03:35:48.941Z,97946
2018-05-13T03:38:16.893Z,97932
2018-05-13T03:40:46.520Z,97938
2018-05-13T03:43:14.093Z,97944
2018-05-13T03:45:41.621Z,97947
2018-05-13T03:48:09.371Z,97946
2018-05-13T03:50:37.771Z,97948
2018-05-13T03:53:05.322Z,97953
2018-05-13T03:55:32.822Z,97949
2018-05-13T03:58:02.600Z,97945
2018-05-13T04:00:32.204Z,97947
2018-05-13T04:02:59.800Z,97937
2018-05-13T04:05:30.673Z,97937
2018-05-13T04:11:42.941Z,97933
2018-05-13T04:14:28.241Z,97938
2018-05-13T04:16:56.001Z,97938
2018-05-13T04:19:23.380Z,97942
2018-05-13T04:21:52.141Z,97944
2018-05-13T04:24:20.491Z,97933
2018-05-13T04:26:48.111Z,97932
2018-05-13T04:29:15.902Z,97929
2018-05-13T04:31:44.021Z,97935
2018-05-13T04:34:11.410Z,97936
2018-05-13T04:36:41.224Z,97935
2018-05-13T04:39:09.722Z,97941
2018-05-13T04:41:38.920Z,97936
2018-05-13T04:44:08.712Z,97932
2018-05-13T04:46:38.681Z,97931
2018-05-13T04:49:06.105Z,97926
2018-05-13T04:51:35.801Z,97926
2018-05-13T04:54:04.284Z,97926
2018-05-13T04:56:31.892Z,97931
2018-05-13T04:58:59.192Z,97926
2018-05-13T05:01:26.821Z,97930
2018-05-13T05:03:54.311Z,97932
2018-05-13T05:06:21.722Z,97926
2018-05-13T05:08:49.080Z,97928
2018-05-13T05:11:17.010Z,97922
2018-05-13T05:13:47.690Z,97930
2018-05-13T05:16:15.222Z,97923
2018-05-13T05:18:43.181Z,97930
2018-05-13T05:21:10.339Z,97925
2018-05-13T05:23:37.554Z,97925
2018-05-13T05:26:05.150Z,97928
2018-05-13T05:28:32.167Z,97925
2018-05-13T05:31:02.241Z,97925
2018-05-13T05:33:30.010Z,97925
2018-05-13T05:35:57.460Z,97922
2018-05-13T05:38:24.813Z,97923
2018-05-13T05:40:52.196Z,97923
2018-05-13T05:43:20.295Z,97918
2018-05-13T05:45:47.673Z,97922
2018-05-13T05:48:15.425Z,97923
2018-05-13T05:50:42.979Z,97925
2018-05-13T05:53:10.489Z,97916
2018-05-13T05:55:38.667Z,97918
2018-05-13T05:58:06.540Z,97927
2018-05-13T06:00:34.441Z,97926
2018-05-13T06:03:02.772Z,97929
2018-05-13T06:05:31.539Z,97923
2018-05-13T06:07:59.331Z,97919
2018-05-13T06:10:27.131Z,97930
2018-05-13T06:12:54.743Z,97923
2018-05-13T06:15:22.350Z,97935
2018-05-13T06:17:50.670Z,97939
2018-05-13T06:20:18.341Z,97931
2018-05-13T06:22:45.760Z,97922
2018-05-13T06:25:13.225Z,97923
2018-05-13T06:27:41.761Z,97927
2018-05-13T06:30:09.421Z,97923
2018-05-13T06:32:36.830Z,97925
2018-05-13T06:35:04.064Z,97922
2018-05-13T06:37:31.912Z,97925
2018-05-13T06:40:00.580Z,97917
2018-05-13T06:42:27.668Z,97918
2018-05-13T06:44:55.230Z,97908
2018-05-13T06:47:23.041Z,97913
2018-05-13T06:49:50.389Z,97904
2018-05-13T06:52:18.240Z,97895
2018-05-13T06:54:45.730Z,97898
2018-05-13T06:57:12.874Z,97897
2018-05-13T06:59:40.481Z,97890
2018-05-13T07:02:08.151Z,97879
2018-05-13T07:04:35.970Z,97881
2018-05-13T07:07:04.080Z,97886
2018-05-13T07:09:31.662Z,97876
2018-05-13T07:11:59.150Z,97878
2018-05-13T07:14:27.641Z,97871
2018-05-13T07:16:56.042Z,97864
2018-05-13T07:19:24.280Z,97878
2018-05-13T07:21:52.946Z,97867
2018-05-13T07:24:20.652Z,97866
2018-05-13T07:26:48.861Z,97869
2018-05-13T07:29:16.454Z,97867
2018-05-13T07:31:43.950Z,97867
2018-05-13T07:34:12.001Z,97859
2018-05-13T07:36:40.610Z,97860
2018-05-13T07:39:08.771Z,97859
2018-05-13T07:41:37.102Z,97861
2018-05-13T07:44:04.774Z,97857
2018-05-13T07:46:32.380Z,97865
2018-05-13T07:49:01.050Z,97845
2018-05-13T07:51:28.701Z,97855
2018-05-13T07:53:56.271Z,97858
2018-05-13T07:56:23.740Z,97854
2018-05-13T07:58:52.501Z,97856
2018-05-13T08:01:20.052Z,97844
2018-05-13T08:03:47.531Z,97845
2018-05-13T08:06:15.137Z,97840
2018-05-13T08:08:42.771Z,97833
2018-05-13T08:11:11.031Z,97833
2018-05-13T08:13:38.601Z,97842
2018-05-13T08:16:06.131Z,97834
2018-05-13T08:18:34.248Z,97838
2018-05-13T08:21:01.851Z,97844
2018-05-13T08:23:29.301Z,97835
2018-05-13T08:25:56.841Z,97825
2018-05-13T08:28:24.663Z,97823
2018-05-13T08:30:53.152Z,97821
2018-05-13T08:33:20.891Z,97821
2018-05-13T08:35:48.783Z,97822
2018-05-13T08:38:17.390Z,97827
2018-05-13T08:40:45.230Z,97816
2018-05-13T08:43:13.502Z,97813
2018-05-13T08:45:41.632Z,97806
2018-05-13T08:48:09.160Z,97810
2018-05-13T08:50:36.601Z,97802
2018-05-13T08:53:04.321Z,97812
2018-05-13T08:55:31.970Z,97820
2018-05-13T08:58:00.271Z,97802
2018-05-13T09:00:27.880Z,97805
2018-05-13T09:02:55.861Z,97798
2018-05-13T09:05:23.340Z,97793
2018-05-13T09:07:51.792Z,97783
2018-05-13T09:10:19.193Z,97790
2018-05-13T09:12:46.821Z,97797
2018-05-13T09:15:29.971Z,97796
2018-05-13T09:18:06.775Z,97792
2018-05-13T09:20:35.273Z,97792
2018-05-13T09:23:02.621Z,97788
2018-05-13T09:25:30.254Z,97781
2018-05-13T09:27:57.785Z,97782
2018-05-13T09:30:26.031Z,97788
2018-05-13T09:32:55.074Z,97786
2018-05-13T09:35:22.642Z,97784
2018-05-13T09:37:50.264Z,97777
2018-05-13T09:40:17.521Z,97778
2018-05-13T09:42:44.961Z,97777
2018-05-13T09:45:12.531Z,97761
2018-05-13T09:47:40.111Z,97772
2018-05-13T09:50:09.411Z,97760
2018-05-13T09:52:36.871Z,97767
2018-05-13T09:55:06.942Z,97766
2018-05-13T09:57:37.489Z,97759
2018-05-13T10:00:05.162Z,97758
2018-05-13T10:02:33.041Z,97754
2018-05-13T10:05:01.712Z,97757
2018-05-13T10:07:29.242Z,97752
2018-05-13T10:09:57.032Z,97744
2018-05-13T10:12:24.622Z,97755
2018-05-13T10:14:52.122Z,97753
2018-05-13T10:17:22.253Z,97754
2018-05-13T10:19:50.046Z,97761
2018-05-13T10:22:18.291Z,97749
2018-05-13T10:24:46.055Z,97756
2018-05-13T10:27:15.197Z,97756
2018-05-13T10:29:42.651Z,97751
2018-05-13T10:32:10.131Z,97753
2018-05-13T10:34:37.140Z,97741
2018-05-13T10:37:04.481Z,97745
2018-05-13T10:39:32.013Z,97742
2018-05-13T10:42:00.801Z,97741
2018-05-13T10:44:29.131Z,97733
2018-05-13T10:46:56.711Z,97737
2018-05-13T10:49:25.641Z,97735
2018-05-13T10:51:53.031Z,97733
2018-05-13T10:54:22.731Z,97723
2018-05-13T10:56:51.956Z,97727
2018-05-13T10:59:19.863Z,97732
2018-05-13T11:01:48.420Z,97721
2018-05-13T11:04:17.764Z,97719
2018-05-13T11:06:45.650Z,97708
2018-05-13T11:09:13.221Z,97707
2018-05-13T11:11:40.556Z,97714
2018-05-13T11:14:08.202Z,97702
2018-05-13T11:16:35.780Z,97705
2018-05-13T11:19:03.542Z,97704
2018-05-13T11:21:31.412Z,97708
2018-05-13T11:23:59.073Z,97705
2018-05-13T11:26:26.670Z,97697
2018-05-13T11:28:54.952Z,97688
2018-05-13T11:31:23.461Z,97690
2018-05-13T11:33:51.087Z,97681
2018-05-13T11:36:18.542Z,97682
2018-05-13T11:38:46.760Z,97678
2018-05-13T11:41:14.280Z,97683
2018-05-13T11:43:41.732Z,97680
2018-05-13T11:46:09.190Z,97679
2018-05-13T11:48:36.532Z,97671
2018-05-13T11:51:05.152Z,97668
2018-05-13T11:53:32.681Z,97673
2018-05-13T11:56:00.972Z,97664
2018-05-13T11:58:29.350Z,97664
2018-05-13T12:00:57.701Z,97661
2018-05-13T12:03:25.332Z,97649
2018-05-13T12:05:52.854Z,97648
2018-05-13T12:08:20.521Z,97646
2018-05-13T12:10:48.550Z,97640
2018-05-13T12:13:16.000Z,97635
2018-05-13T12:15:43.781Z,97632
2018-05-13T12:18:13.032Z,97630
2018-05-13T12:20:40.331Z,97624
2018-05-13T12:23:07.941Z,97620
2018-05-13T12:25:35.262Z,97626
2018-05-13T12:28:02.641Z,97613
2018-05-13T12:30:30.061Z,97613
2018-05-13T12:32:57.621Z,97615
2018-05-13T12:35:25.200Z,97611
2018-05-13T12:37:53.511Z,97612
2018-05-13T12:40:21.361Z,97613
2018-05-13T12:42:48.801Z,97605
2018-05-13T12:45:17.270Z,97607
2018-05-13T12:47:44.852Z,97609
2018-05-13T12:50:12.865Z,97608
2018-05-13T12:52:40.503Z,97597
2018-05-13T12:55:08.562Z,97600
2018-05-13T12:57:36.038Z,97605
2018-05-13T13:00:04.595Z,97602
2018-05-13T13:02:31.834Z,97594
2018-05-13T13:04:59.417Z,97596
2018-05-13T13:07:27.569Z,97594
2018-05-13T13:09:55.771Z,97593
2018-05-13T13:12:22.987Z,97584
2018-05-13T13:14:50.611Z,97587
2018-05-13T13:17:17.793Z,97577
2018-05-13T13:19:47.181Z,97576
2018-05-13T13:22:14.851Z,97576
2018-05-13T13:24:43.717Z,97573
2018-05-13T13:27:14.710Z,97564
2018-05-13T13:29:41.733Z,97560
2018-05-13T13:32:09.672Z,97555
2018-05-13T13:34:46.546Z,97548
2018-05-13T13:37:15.010Z,97540
2018-05-13T13:39:42.561Z,97536
2018-05-13T13:42:13.020Z,97535
2018-05-13T13:44:41.610Z,97527
2018-05-13T13:47:10.542Z,97531
2018-05-13T13:49:38.685Z,97538
2018-05-13T13:52:07.973Z,97533
2018-05-13T13:54:36.094Z,97539
2018-05-13T13:57:05.012Z,97536
2018-05-13T13:59:36.570Z,97540
2018-05-13T14:02:06.133Z,97533
2018-05-13T14:04:36.956Z,97534
2018-05-13T14:07:05.555Z,97531
2018-05-13T14:09:33.895Z,97530
2018-05-13T14:12:02.855Z,97532
2018-05-13T14:14:34.576Z,97529
2018-05-13T14:17:02.873Z,97532
2018-05-13T14:19:31.270Z,97524
2018-05-13T14:22:01.748Z,97522
2018-05-13T14:24:29.174Z,97523
2018-05-13T14:26:56.446Z,97522
2018-05-13T14:29:25.870Z,97518
2018-05-13T14:31:56.017Z,97514
2018-05-13T14:34:27.509Z,97515
2018-05-13T14:36:54.784Z,97502
2018-05-13T14:39:22.609Z,97518
2018-05-13T14:41:50.775Z,97520
2018-05-13T14:44:19.701Z,97512
2018-05-13T14:46:49.631Z,97517
2018-05-13T14:49:18.185Z,97517
2018-05-13T14:51:46.041Z,97504
2018-05-13T14:54:14.680Z,97514
2018-05-13T14:56:44.602Z,97512
2018-05-13T14:59:14.060Z,97510
2018-05-13T15:01:43.026Z,97510
2018-05-13T15:04:12.988Z,97510
2018-05-13T15:06:46.321Z,97503
2018-05-13T15:09:13.752Z,97496
2018-05-13T15:11:41.229Z,97495
2018-05-13T15:14:09.041Z,97490
2018-05-13T15:16:38.179Z,97493
2018-05-13T15:19:05.752Z,97488
2018-05-13T15:21:33.330Z,97489
2018-05-13T15:24:00.780Z,97486
2018-05-13T15:26:28.342Z,97480
2018-05-13T15:28:55.796Z,97483
2018-05-13T15:31:24.111Z,97484
2018-05-13T15:33:52.430Z,97480
2018-05-13T15:36:19.851Z,97478
2018-05-13T15:38:47.371Z,97481
2018-05-13T15:41:14.930Z,97481
2018-05-13T15:43:42.761Z,97485
2018-05-13T15:46:10.349Z,97478
2018-05-13T15:48:37.821Z,97479
2018-05-13T15:51:06.361Z,97482
2018-05-13T15:53:34.050Z,97490
2018-05-13T15:56:02.431Z,97495
2018-05-13T15:58:30.771Z,97471
2018-05-13T16:00:58.270Z,97491
2018-05-13T16:03:25.920Z,97482
2018-05-13T16:05:53.621Z,97485
2018-05-13T16:08:22.171Z,97477
2018-05-13T16:10:49.711Z,97482
2018-05-13T16:13:17.311Z,97471
2018-05-13T16:15:44.769Z,97466
2018-05-13T16:18:13.105Z,97469
2018-05-13T16:20:40.682Z,97475
2018-05-13T16:23:08.720Z,97481
2018-05-13T16:25:36.240Z,97488
2018-05-13T16:28:03.891Z,97502
2018-05-13T16:30:31.242Z,97494
2018-05-13T16:32:59.110Z,97500
2018-05-13T16:35:27.313Z,97491
2018-05-13T16:37:55.140Z,97485
2018-05-13T16:40:22.691Z,97497
2018-05-13T16:42:50.331Z,97479
2018-05-13T16:45:17.880Z,97482
2018-05-13T16:47:45.423Z,97479
2018-05-13T16:50:13.101Z,97474
2018-05-13T16:52:41.072Z,97456
2018-05-13T16:55:08.624Z,97484
2018-05-13T16:57:36.211Z,97485
2018-05-13T17:00:03.900Z,97489
2018-05-13T17:02:31.983Z,97460
2018-05-13T17:04:59.580Z,97477
2018-05-13T17:07:27.300Z,97479
2018-05-13T17:09:54.981Z,97477
2018-05-13T17:12:23.110Z,97463
2018-05-13T17:14:50.460Z,97475
2018-05-13T17:17:17.975Z,97472
2018-05-13T17:19:45.461Z,97471
2018-05-13T17:22:13.073Z,97465
2018-05-13T17:24:41.391Z,97457
2018-05-13T17:27:08.911Z,97454
2018-05-13T17:29:37.072Z,97460
2018-05-13T17:32:05.772Z,97456
2018-05-13T17:34:33.310Z,97468
2018-05-13T17:37:00.842Z,97459
2018-05-13T17:39:28.730Z,97444
2018-05-13T17:41:56.290Z,97454
2018-05-13T17:44:23.811Z,97447
2018-05-13T17:46:51.351Z,97449
2018-05-13T17:49:19.971Z,97432
2018-05-13T17:51:47.420Z,97445
2018-05-13T17:54:15.022Z,97456
2018-05-13T17:56:43.449Z,97451
2018-05-13T17:59:10.970Z,97449
2018-05-13T18:01:39.241Z,97447
2018-05-13T18:04:07.230Z,97440
2018-05-13T18:06:34.891Z,97451
2018-05-13T18:09:02.626Z,97443
2018-05-13T18:11:30.841Z,97452
2018-05-13T18:13:58.290Z,97452
2018-05-13T18:16:26.172Z,97452
2018-05-13T18:18:53.650Z,97459
2018-05-13T18:21:24.090Z,97456
2018-05-13T18:23:51.741Z,97460
2018-05-13T18:26:19.382Z,97458
2018-05-13T18:28:46.950Z,97458
2018-05-13T18:31:14.471Z,97463
2018-05-13T18:33:42.125Z,97466
2018-05-13T18:36:09.601Z,97466
2018-05-13T18:38:37.112Z,97465
2018-05-13T18:41:04.681Z,97464
2018-05-13T18:43:33.030Z,97458
2018-05-13T18:46:00.501Z,97472
2018-05-13T18:48:28.010Z,97471
2018-05-13T18:50:55.570Z,97479
2018-05-13T18:53:23.130Z,97482
2018-05-13T18:55:50.720Z,97489
2018-05-13T18:58:18.299Z,97492
2018-05-13T19:00:46.750Z,97498
2018-05-13T19:03:14.221Z,97487
2018-05-13T19:05:41.731Z,97492
2018-05-13T19:08:09.250Z,97495
2018-05-13T19:10:37.202Z,97502
2018-05-13T19:13:04.801Z,97483
2018-05-13T19:15:32.351Z,97496
2018-05-13T19:18:00.652Z,97505
2018-05-13T19:20:28.281Z,97517
2018-05-13T19:22:56.020Z,97519
2018-05-13T19:25:23.431Z,97521
2018-05-13T19:27:51.391Z,97524
2018-05-13T19:30:18.830Z,97518
2018-05-13T19:32:46.570Z,97513
2018-05-13T19:35:14.230Z,97522
2018-05-13T19:37:41.721Z,97525
2018-05-13T19:40:09.192Z,97527
2018-05-13T19:42:36.543Z,97532
2018-05-13T19:45:05.936Z,97540
2018-05-13T19:47:34.232Z,97542
2018-05-13T19:50:02.032Z,97539
2018-05-13T19:52:29.652Z,97547
2018-05-13T19:54:57.172Z,97555
2018-05-13T19:57:24.453Z,97553
2018-05-13T19:59:52.920Z,97561
2018-05-13T20:02:20.351Z,97547
2018-05-13T20:04:47.851Z,97566
2018-05-13T20:07:15.124Z,97550
2018-05-13T20:09:42.813Z,97571
2018-05-13T20:12:13.990Z,97558
2018-05-13T20:14:42.232Z,97569
2018-05-13T20:17:10.490Z,97572
2018-05-13T20:19:37.852Z,97559
2018-05-13T20:22:05.800Z,97563
2018-05-13T20:24:34.162Z,97569
2018-05-13T20:27:01.841Z,97574
2018-05-13T20:29:29.311Z,97568
2018-05-13T20:31:56.612Z,97564
2018-05-13T20:34:24.160Z,97565
2018-05-13T20:36:51.490Z,97570
2018-05-13T20:39:19.632Z,97578
2018-05-13T20:41:47.010Z,97588
2018-05-13T20:44:14.464Z,97583
2018-05-13T20:46:45.024Z,97589
2018-05-13T20:49:12.341Z,97582
2018-05-13T20:51:40.672Z,97585
2018-05-13T20:54:08.161Z,97586
2018-05-13T20:56:36.691Z,97589
2018-05-13T20:59:04.172Z,97580
2018-05-13T21:01:31.822Z,97585
2018-05-13T21:03:59.201Z,97590
2018-05-13T21:06:27.184Z,97580
2018-05-13T21:08:54.751Z,97577
2018-05-13T21:11:22.212Z,97580
2018-05-13T21:13:49.522Z,97562
2018-05-13T21:16:17.201Z,97581
2018-05-13T21:18:45.301Z,97571
2018-05-13T21:21:12.651Z,97572
2018-05-13T21:23:41.011Z,97567
2018-05-13T21:26:08.390Z,97569
2018-05-13T21:28:35.701Z,97571
2018-05-13T21:31:04.831Z,97569
2018-05-13T21:33:33.492Z,97573
2018-05-13T21:36:01.921Z,97564
2018-05-13T21:38:30.112Z,97572
2018-05-13T21:40:57.621Z,97579
2018-05-13T21:43:25.380Z,97570
2018-05-13T21:45:52.651Z,97572
2018-05-13T21:48:20.021Z,97574
2018-05-13T21:50:49.121Z,97566
2018-05-13T21:53:16.689Z,97576
2018-05-13T21:55:43.981Z,97575
2018-05-13T21:58:11.480Z,97576
2018-05-13T22:00:40.032Z,97577
2018-05-13T22:03:07.529Z,97568
2018-05-13T22:05:35.966Z,97575
2018-05-13T22:08:04.620Z,97570
2018-05-13T22:10:31.991Z,97567
2018-05-13T22:13:00.480Z,97566
2018-05-13T22:15:27.979Z,97571
2018-05-13T22:17:55.269Z,97579
2018-05-13T22:20:22.810Z,97573
2018-05-13T22:22:53.799Z,97575
2018-05-13T22:25:21.971Z,97574
2018-05-13T22:27:49.300Z,97584
2018-05-13T22:30:17.335Z,97575
2018-05-13T22:32:46.833Z,97583
2018-05-13T22:35:17.371Z,97574
2018-05-13T22:37:47.410Z,97576
2018-05-13T22:40:15.791Z,97568
2018-05-13T22:42:43.902Z,97563
2018-05-13T22:45:11.380Z,97558
2018-05-13T22:47:38.876Z,97557
2018-05-13T22:50:07.000Z,97559
2018-05-13T22:52:34.650Z,97562
2018-05-13T22:55:01.980Z,97559
2018-05-13T22:57:29.449Z,97558
2018-05-13T22:59:57.068Z,97547
2018-05-13T23:02:25.352Z,97555
2018-05-13T23:04:52.880Z,97561
2018-05-13T23:07:20.250Z,97557
2018-05-13T23:09:48.855Z,97558
2018-05-13T23:12:17.742Z,97552
2018-05-13T23:14:45.072Z,97554
2018-05-13T23:17:12.502Z,97550
2018-05-13T23:19:39.880Z,97550
2018-05-13T23:22:08.592Z,97553
2018-05-13T23:24:37.080Z,97553
2018-05-13T23:27:05.040Z,97553
2018-05-13T23:29:33.400Z,97554
2018-05-13T23:32:00.811Z,97548
2018-05-13T23:34:28.085Z,97539
2018-05-13T23:36:55.270Z,97538
2018-05-13T23:39:22.642Z,97539
2018-05-13T23:41:50.020Z,97526
2018-05-13T23:44:19.050Z,97535
2018-05-13T23:46:47.871Z,97535
2018-05-13T23:49:15.311Z,97551
2018-05-13T23:51:42.631Z,97534
2018-05-13T23:54:10.141Z,97541
2018-05-13T23:56:37.521Z,97528
2018-05-13T23:59:05.012Z,97532
